createdAt,value
2018-12-13T00:00:03.844Z,100.00
2018-12-13T00:05:07.137Z,100.00
2018-12-13T00:10:10.380Z,100.00
2018-12-13T00:15:13.660Z,100.00
2018-12-13T00:20:17.079Z,100.00
2018-12-13T00:25:20.641Z,100.00
2018-12-13T00:30:24.098Z,100.00
2018-12-13T00:35:27.303Z,100.00
2018-12-13T00:40:30.583Z,100.00
2018-12-13T00:45:33.839Z,100.00
2018-12-13T00:50:37.012Z,100.00
2018-12-13T00:55:40.354Z,100.00
2018-12-13T01:00:43.465Z,100.00
2018-12-13T01:05:46.674Z,100.00
2018-12-13T01:10:49.809Z,100.00
2018-12-13T01:15:53.346Z,100.00
2018-12-13T01:20:56.505Z,100.00
2018-12-13T01:25:59.824Z,100.00
2018-12-13T01:31:03.132Z,100.00
2018-12-13T01:36:06.524Z,100.00
2018-12-13T01:41:09.710Z,100.00
2018-12-13T01:46:15.089Z,100.00
2018-12-13T01:51:18.458Z,100.00
2018-12-13T01:56:21.743Z,100.00
2018-12-13T02:01:24.959Z,100.00
2018-12-13T02:06:28.334Z,100.00
2018-12-13T02:11:31.570Z,100.00
2018-12-13T02:16:34.873Z,100.00
2018-12-13T02:21:38.336Z,100.00
2018-12-13T02:26:41.790Z,100.00
2018-12-13T02:31:45.124Z,100.00
2018-12-13T02:36:48.876Z,100.00
2018-12-13T02:41:52.088Z,100.00
2018-12-13T02:46:55.333Z,100.00
2018-12-13T02:52:01.665Z,100.00
2018-12-13T02:57:04.863Z,100.00
2018-12-13T03:02:08.271Z,100.00
2018-12-13T03:07:13.992Z,100.00
2018-12-13T03:12:16.947Z,100.00
2018-12-13T03:17:20.249Z,100.00
2018-12-13T03:22:23.467Z,100.00
2018-12-13T03:27:26.804Z,100.00
2018-12-13T03:32:30.186Z,100.00
2018-12-13T03:37:33.452Z,100.00
2018-12-13T03:42:37.010Z,100.00
2018-12-13T03:47:40.324Z,100.00
2018-12-13T03:52:43.599Z,100.00
2018-12-13T03:57:46.998Z,100.00
2018-12-13T04:02:50.436Z,100.00
2018-12-13T04:07:53.854Z,100.00
2018-12-13T04:12:57.296Z,100.00
2018-12-13T04:18:00.566Z,100.00
2018-12-13T04:23:03.784Z,100.00
2018-12-13T04:28:07.165Z,100.00
2018-12-13T04:33:10.455Z,100.00
2018-12-13T04:38:13.753Z,100.00
2018-12-13T04:43:17.002Z,100.00
2018-12-13T04:48:20.266Z,100.00
2018-12-13T04:53:23.577Z,100.00
2018-12-13T04:58:26.836Z,100.00
2018-12-13T05:03:30.098Z,100.00
2018-12-13T05:08:33.190Z,100.00
2018-12-13T05:13:36.463Z,100.00
2018-12-13T05:18:39.724Z,100.00
2018-12-13T05:23:43.018Z,100.00
2018-12-13T05:28:46.151Z,100.00
2018-12-13T05:33:49.454Z,100.00
2018-12-13T05:38:52.768Z,100.00
2018-12-13T05:43:56.182Z,100.00
2018-12-13T05:48:59.488Z,100.00
2018-12-13T05:54:02.767Z,100.00
2018-12-13T05:59:06.118Z,100.00
2018-12-13T06:04:10.204Z,100.00
2018-12-13T06:09:13.455Z,100.00
2018-12-13T06:14:16.665Z,100.00
2018-12-13T06:19:19.890Z,100.00
2018-12-13T06:24:23.218Z,100.00
2018-12-13T06:29:26.398Z,100.00
2018-12-13T06:34:29.756Z,100.00
2018-12-13T06:39:33.266Z,100.00
2018-12-13T06:44:36.694Z,100.00
2018-12-13T06:49:39.951Z,100.00
2018-12-13T06:54:43.192Z,100.00
2018-12-13T06:59:46.903Z,100.00
2018-12-13T07:04:50.094Z,100.00
2018-12-13T07:09:53.378Z,100.00
2018-12-13T07:14:56.740Z,100.00
2018-12-13T07:20:00.014Z,100.00
2018-12-13T07:25:03.662Z,100.00
2018-12-13T07:30:08.323Z,100.00
2018-12-13T07:35:11.604Z,100.00
2018-12-13T07:40:14.941Z,100.00
2018-12-13T07:45:18.117Z,100.00
2018-12-13T07:50:21.334Z,99.89
2018-12-13T07:55:24.605Z,99.39
2018-12-13T08:00:28.266Z,99.30
2018-12-13T08:05:31.679Z,98.93
2018-12-13T08:10:35.039Z,99.21
2018-12-13T08:15:40.404Z,99.00
2018-12-13T08:20:43.780Z,99.86
2018-12-13T08:25:46.995Z,99.95
2018-12-13T08:30:50.200Z,100.00
2018-12-13T08:35:53.389Z,100.00
2018-12-13T08:40:56.543Z,100.00
2018-12-13T08:46:00.637Z,100.00
2018-12-13T08:51:03.863Z,100.00
2018-12-13T08:56:07.157Z,100.00
2018-12-13T09:01:10.412Z,99.77
2018-12-13T09:06:13.629Z,99.09
2018-12-13T09:11:16.792Z,98.18
2018-12-13T09:16:20.738Z,97.02
2018-12-13T09:21:23.913Z,94.85
2018-12-13T09:26:27.125Z,94.01
2018-12-13T09:31:30.331Z,91.67
2018-12-13T09:36:33.945Z,90.94
2018-12-13T09:41:37.154Z,91.53
2018-12-13T09:46:40.364Z,92.02
2018-12-13T09:51:43.577Z,92.77
2018-12-13T09:56:46.767Z,92.01
2018-12-13T10:01:50.004Z,92.50
2018-12-13T10:06:53.199Z,93.74
2018-12-13T10:11:56.362Z,91.21
2018-12-13T10:16:59.680Z,89.84
2018-12-13T10:22:03.599Z,90.12
2018-12-13T10:27:06.947Z,89.86
2018-12-13T10:32:10.407Z,89.79
2018-12-13T10:37:13.633Z,90.21
2018-12-13T10:42:16.777Z,89.74
2018-12-13T10:47:20.294Z,89.31
2018-12-13T10:52:23.515Z,86.78
2018-12-13T10:57:26.617Z,86.52
2018-12-13T11:02:39.683Z,87.24
2018-12-13T11:07:42.983Z,86.54
2018-12-13T11:12:46.098Z,84.94
2018-12-13T11:17:49.443Z,84.17
2018-12-13T11:22:52.716Z,83.08
2018-12-13T11:28:32.250Z,84.89
2018-12-13T11:33:36.070Z,84.16
2018-12-13T11:38:40.011Z,84.20
2018-12-13T11:43:43.321Z,85.00
2018-12-13T11:48:46.485Z,84.71
2018-12-13T11:53:50.762Z,84.86
2018-12-13T11:58:53.970Z,85.91
2018-12-13T12:03:57.196Z,85.54
2018-12-13T12:09:00.539Z,86.06
2018-12-13T12:14:03.878Z,87.22
2018-12-13T12:19:07.131Z,86.24
2018-12-13T12:24:10.329Z,86.90
2018-12-13T12:29:13.659Z,87.21
2018-12-13T12:34:18.170Z,87.66
2018-12-13T12:39:21.890Z,87.95
2018-12-13T12:44:25.226Z,86.63
2018-12-13T12:49:29.609Z,86.56
2018-12-13T12:54:33.472Z,87.34
2018-12-13T12:59:36.921Z,88.18
2018-12-13T13:04:40.179Z,89.95
2018-12-13T13:09:43.616Z,90.51
2018-12-13T13:14:47.622Z,91.13
2018-12-13T13:19:51.036Z,91.67
2018-12-13T13:24:54.375Z,92.46
2018-12-13T13:29:57.576Z,92.94
2018-12-13T13:35:01.378Z,93.33
2018-12-13T13:40:05.654Z,94.03
2018-12-13T13:45:08.964Z,93.94
2018-12-13T13:50:12.566Z,94.09
2018-12-13T13:55:15.846Z,94.10
2018-12-13T14:00:19.241Z,94.23
2018-12-13T14:05:22.798Z,93.84
2018-12-13T14:10:26.102Z,94.35
2018-12-13T14:15:30.225Z,94.21
2018-12-13T14:20:33.739Z,95.00
2018-12-13T14:25:37.047Z,95.25
2018-12-13T14:30:40.495Z,95.60
2018-12-13T14:35:44.196Z,96.42
2018-12-13T14:40:47.947Z,96.49
2018-12-13T14:45:52.905Z,97.33
2018-12-13T14:50:58.368Z,97.03
2018-12-13T14:56:04.582Z,96.76
2018-12-13T15:01:13.409Z,96.19
2018-12-13T15:06:19.703Z,95.87
2018-12-13T15:11:25.331Z,95.21
2018-12-13T15:16:30.389Z,95.14
2018-12-13T15:21:35.917Z,95.26
2018-12-13T15:26:42.594Z,94.86
2018-12-13T15:31:47.864Z,94.71
2018-12-13T15:36:58.251Z,94.11
2018-12-13T15:42:01.939Z,94.90
2018-12-13T15:47:05.178Z,94.79
2018-12-13T15:52:08.889Z,94.89
2018-12-13T15:57:12.310Z,94.75
2018-12-13T16:02:16.045Z,94.41
2018-12-13T16:07:19.963Z,94.41
2018-12-13T16:12:23.775Z,94.69
2018-12-13T16:17:27.409Z,94.51
2018-12-13T16:22:31.333Z,94.13
2018-12-13T16:27:35.069Z,93.46
2018-12-13T16:32:38.648Z,93.28
2018-12-13T16:37:42.858Z,93.44
2018-12-13T16:42:46.364Z,92.76
2018-12-13T16:47:49.844Z,92.75
2018-12-13T16:52:54.082Z,92.80
2018-12-13T16:57:57.730Z,93.02
2018-12-13T17:03:08.713Z,93.05
2018-12-13T17:08:12.609Z,93.28
2018-12-13T17:13:16.420Z,92.73
2018-12-13T17:18:20.152Z,91.78
2018-12-13T17:23:23.445Z,91.04
2018-12-13T17:28:27.289Z,88.97
2018-12-13T17:33:30.910Z,88.12
2018-12-13T17:38:34.517Z,88.03
2018-12-13T17:43:38.109Z,87.01
2018-12-13T17:48:41.411Z,86.86
2018-12-13T17:53:45.082Z,85.79
2018-12-13T17:58:51.217Z,86.30
2018-12-13T18:03:54.624Z,86.85
2018-12-13T18:08:58.395Z,86.94
2018-12-13T18:14:03.545Z,87.82
2018-12-13T18:19:09.561Z,88.20
2018-12-13T18:24:12.836Z,88.69
2018-12-13T18:29:16.532Z,88.93
2018-12-13T18:34:20.591Z,88.78
2018-12-13T18:39:24.184Z,88.74
2018-12-13T18:44:27.691Z,88.40
2018-12-13T18:49:31.319Z,89.65
2018-12-13T18:54:34.827Z,89.46
2018-12-13T18:59:38.088Z,88.97
2018-12-13T19:04:41.440Z,88.52
2018-12-13T19:09:44.851Z,89.60
2018-12-13T19:14:48.294Z,88.94
2018-12-13T19:19:51.792Z,88.60
2018-12-13T19:24:55.234Z,86.61
2018-12-13T19:29:58.595Z,87.88
2018-12-13T19:35:01.873Z,87.90
2018-12-13T19:40:06.677Z,87.90
2018-12-13T19:45:10.120Z,87.02
2018-12-13T19:50:13.409Z,87.05
2018-12-13T19:55:16.592Z,86.66
2018-12-13T20:00:21.686Z,86.26
2018-12-13T20:05:25.712Z,86.42
2018-12-13T20:10:39.562Z,83.58
2018-12-13T20:15:43.781Z,83.36
2018-12-13T20:20:48.446Z,84.19
2018-12-13T20:25:52.206Z,82.07
2018-12-13T20:30:56.756Z,83.36
2018-12-13T20:36:00.537Z,81.99
2018-12-13T20:41:05.292Z,80.65
2018-12-13T20:46:08.767Z,80.45
2018-12-13T20:51:12.743Z,81.92
2018-12-13T20:56:16.792Z,81.79
2018-12-13T21:01:20.509Z,82.05
2018-12-13T21:06:24.063Z,81.53
2018-12-13T21:11:27.612Z,81.99
2018-12-13T21:16:31.325Z,82.74
2018-12-13T21:21:35.066Z,81.76
2018-12-13T21:26:38.662Z,82.24
2018-12-13T21:31:42.442Z,82.10
2018-12-13T21:36:45.936Z,81.67
2018-12-13T21:41:49.320Z,82.85
2018-12-13T21:46:53.028Z,82.40
2018-12-13T21:51:56.344Z,83.05
2018-12-13T21:56:59.726Z,83.21
2018-12-13T22:02:15.506Z,83.05
2018-12-13T22:07:22.050Z,84.07
2018-12-13T22:12:25.387Z,84.34
2018-12-13T22:17:28.830Z,84.80
2018-12-13T22:22:32.133Z,86.05
2018-12-13T22:27:36.668Z,86.10
2018-12-13T22:32:39.918Z,86.24
2018-12-13T22:37:43.292Z,86.26
2018-12-13T22:42:46.604Z,86.49
2018-12-13T22:47:49.986Z,86.81
2018-12-13T22:52:53.155Z,86.82
2018-12-13T22:57:56.434Z,87.03
2018-12-13T23:02:59.723Z,86.70
2018-12-13T23:08:03.109Z,87.29
2018-12-13T23:13:06.278Z,87.19
2018-12-13T23:18:09.597Z,86.12
2018-12-13T23:23:13.261Z,86.45
2018-12-13T23:28:16.446Z,85.83
2018-12-13T23:33:19.776Z,85.51
2018-12-13T23:38:23.073Z,85.44
2018-12-13T23:43:26.395Z,85.44
2018-12-13T23:48:30.515Z,84.28
2018-12-13T23:53:34.016Z,83.19
2018-12-13T23:58:37.237Z,82.79
